Time;durP1;ratioP1;P1;durP2;ratioP2;P2;SDS_P1;SDS_P2;PMS_P1;PMS_P2;Temp;Humidity;BMP_temperature;BMP_pressure;BME280_temperature;BME280_humidity;BME280_pressure;Samples;Min_cycle;Max_cycle;Signal;HPM_P1;HPM_P2
2022/03/25 00:00:54;;;;;;;;;56.50;45.00;;;;;17.13;30.80;102115.66;2099452;28;48191;-59
2022/03/25 00:01:54;;;;;;;;;53.25;43.50;;;;;17.12;30.54;102113.91;2103732;28;47527;-60
2022/03/25 00:02:55;;;;;;;;;54.75;44.75;;;;;17.11;30.75;102113.03;2103712;28;47438;-62
2022/03/25 00:03:56;;;;;;;;;53.25;42.75;;;;;17.11;30.13;102120.19;2103776;28;48249;-59
2022/03/25 00:04:56;;;;;;;;;53.80;44.40;;;;;17.10;30.36;102108.59;2104028;28;47989;-59
2022/03/25 00:05:57;;;;;;;;;56.00;44.75;;;;;17.10;30.50;102107.72;2103873;28;47559;-57
2022/03/25 00:06:58;;;;;;;;;55.50;44.00;;;;;17.10;30.33;102115.75;2104334;28;47831;-57
2022/03/25 00:07:59;;;;;;;;;53.00;42.75;;;;;17.09;30.58;102120.25;2103931;28;48059;-60
2022/03/25 00:09:00;;;;;;;;;58.75;45.00;;;;;17.09;30.17;102114.00;2103804;28;46629;-61
2022/03/25 00:10:01;;;;;;;;;51.25;42.75;;;;;17.07;30.64;102119.41;2076798;28;47648;-59
2022/03/25 00:11:01;;;;;;;;;54.00;44.25;;;;;17.06;30.62;102117.66;2077438;28;47578;-60
2022/03/25 00:12:03;;;;;;;;;55.75;44.75;;;;;17.06;30.67;102117.66;2103323;28;48070;-62
2022/03/25 00:13:05;;;;;;;;;53.80;43.20;;;;;17.04;30.42;102117.69;2103501;28;47964;-58
2022/03/25 00:14:06;;;;;;;;;51.20;43.00;;;;;17.04;30.28;102116.81;2103830;28;47935;-61
2022/03/25 00:15:06;;;;;;;;;50.75;40.75;;;;;17.03;30.23;102115.94;2103945;28;47581;-59
2022/03/25 00:16:07;;;;;;;;;53.00;43.75;;;;;17.02;30.32;102121.31;2103692;28;47570;-59
2022/03/25 00:17:08;;;;;;;;;51.00;42.75;;;;;17.01;30.74;102120.44;2103690;28;48146;-61
2022/03/25 00:18:08;;;;;;;;;47.75;40.50;;;;;16.99;30.68;102116.91;2103487;28;46738;-60
2022/03/25 00:19:08;;;;;;;;;51.75;41.25;;;;;16.99;30.77;102110.66;2103731;28;47887;-60
2022/03/25 00:20:09;;;;;;;;;54.50;42.25;;;;;16.99;30.49;102116.91;2103509;28;47532;-58
2022/03/25 00:21:10;;;;;;;;;52.50;42.50;;;;;16.97;30.50;102121.44;2103738;28;47108;-60
2022/03/25 00:22:10;;;;;;;;;54.00;44.25;;;;;16.97;30.73;102121.44;2103503;28;47472;-59
2022/03/25 00:23:11;;;;;;;;;56.00;45.75;;;;;16.97;30.64;102118.75;2103401;28;47389;-62
2022/03/25 00:24:11;;;;;;;;;53.25;42.00;;;;;16.96;30.35;102127.72;2103516;28;47570;-61
2022/03/25 00:25:12;;;;;;;;;53.50;44.25;;;;;16.95;30.42;102123.28;2104009;28;47843;-59
2022/03/25 00:26:12;;;;;;;;;50.50;42.25;;;;;16.95;30.62;102125.09;2099537;27;47357;-61
2022/03/25 00:27:13;;;;;;;;;52.00;42.75;;;;;16.93;30.62;102122.44;2101369;28;48007;-59
2022/03/25 00:28:13;;;;;;;;;39.00;34.00;;;;;16.92;30.25;102123.38;2102799;28;47754;-59
2022/03/25 00:29:14;;;;;;;;;51.25;42.50;;;;;16.92;30.59;102118.00;2103741;28;47129;-61
2022/03/25 00:30:14;;;;;;;;;52.00;42.75;;;;;16.91;30.25;102121.63;2103906;28;47562;-59
2022/03/25 00:31:16;;;;;;;;;54.25;45.00;;;;;16.90;30.21;102121.66;2103646;28;47903;-61
2022/03/25 00:32:16;;;;;;;;;56.00;45.40;;;;;16.90;30.67;102118.97;2103619;28;48056;-61
2022/03/25 00:33:17;;;;;;;;;55.50;43.25;;;;;16.89;30.72;102122.53;2103513;28;47919;-58
2022/03/25 00:34:18;;;;;;;;;49.00;40.75;;;;;16.87;30.38;102116.34;2103759;28;47646;-61
2022/03/25 00:35:19;;;;;;;;;51.20;43.20;;;;;16.85;30.34;102111.03;2103456;28;48237;-59
2022/03/25 00:36:21;;;;;;;;;54.80;44.20;;;;;16.86;30.60;102115.47;2103652;28;47919;-60
2022/03/25 00:37:23;;;;;;;;;52.80;44.20;;;;;16.86;30.56;102114.59;2103517;28;47674;-59
2022/03/25 00:38:24;;;;;;;;;55.20;45.00;;;;;16.85;30.45;102113.72;2103802;28;47864;-60
2022/03/25 00:39:24;;;;;;;;;50.00;41.25;;;;;16.84;30.64;102120.00;2103952;28;47583;-59
2022/03/25 00:40:25;;;;;;;;;52.75;43.25;;;;;16.84;30.40;102119.13;2103882;28;47613;-60
2022/03/25 00:41:25;;;;;;;;;56.00;44.25;;;;;16.83;30.54;102115.56;2108932;27;47366;-58
2022/03/25 00:42:27;;;;;;;;;44.75;32.00;;;;;16.82;30.69;102113.78;2112004;27;47721;-60
2022/03/25 00:43:28;;;;;;;;;50.60;41.80;;;;;16.83;30.20;102114.66;2103794;28;47525;-60
2022/03/25 00:44:28;;;;;;;;;56.20;44.80;;;;;16.80;30.69;102118.31;2103566;28;47864;-61
2022/03/25 00:45:29;;;;;;;;;51.75;42.25;;;;;16.80;30.33;102118.31;2103664;28;47747;-60
2022/03/25 00:46:29;;;;;;;;;55.50;44.25;;;;;16.81;30.55;102122.75;2103542;28;47450;-59
2022/03/25 00:47:30;;;;;;;;;51.00;42.50;;;;;16.81;30.76;102113.84;2103592;28;47155;-59
2022/03/25 00:48:32;;;;;;;;;53.25;43.25;;;;;16.79;30.28;102113.88;2103813;28;47738;-60
2022/03/25 00:49:32;;;;;;;;;56.60;44.80;;;;;16.79;30.47;102118.34;2103389;28;47660;-59
2022/03/25 00:50:33;;;;;;;;;53.00;42.75;;;;;16.79;30.47;102124.59;2103573;28;47408;-60
2022/03/25 00:51:34;;;;;;;;;50.00;42.00;;;;;16.77;30.73;102113.03;2103706;28;47505;-62
2022/03/25 00:52:34;;;;;;;;;49.50;41.25;;;;;16.75;30.61;102121.09;2103365;28;48062;-58
2022/03/25 00:53:35;;;;;;;;;53.00;43.00;;;;;16.75;30.25;102117.53;2103165;28;47342;-56
2022/03/25 00:54:36;;;;;;;;;54.50;43.00;;;;;16.74;30.27;102123.81;2103601;28;47685;-60
2022/03/25 00:55:38;;;;;;;;;50.60;42.60;;;;;16.73;30.67;102120.25;2103518;28;47677;-60
2022/03/25 00:56:39;;;;;;;;;52.60;42.80;;;;;16.72;30.42;102121.19;2094596;28;47643;-59
2022/03/25 00:57:39;;;;;;;;;53.50;43.25;;;;;16.71;30.84;102121.22;2094837;28;47443;-60
2022/03/25 00:58:40;;;;;;;;;54.25;43.25;;;;;16.69;30.73;102118.59;2103511;28;47685;-60
2022/03/25 00:59:40;;;;;;;;;56.50;45.00;;;;;16.68;30.61;102121.31;2103573;28;47545;-59
2022/03/25 01:00:41;;;;;;;;;55.00;43.25;;;;;16.65;31.06;102111.50;2103392;28;48015;-59
2022/03/25 01:01:42;;;;;;;;;52.25;43.00;;;;;16.64;31.09;102115.13;2103520;28;48061;-59
2022/03/25 01:02:42;;;;;;;;;55.25;44.00;;;;;16.64;30.84;102117.78;2103265;28;47553;-60
2022/03/25 01:03:43;;;;;;;;;55.25;43.00;;;;;16.63;30.70;102115.13;2103543;28;47815;-60
2022/03/25 01:04:44;;;;;;;;;52.00;42.75;;;;;16.61;31.01;102114.28;2102856;27;47863;-62
2022/03/25 01:05:44;;;;;;;;;51.50;41.75;;;;;16.60;30.63;102113.41;2104002;28;47617;-59
2022/03/25 01:06:45;;;;;;;;;51.50;40.25;;;;;16.58;31.20;102117.94;2103490;28;47498;-60
2022/03/25 01:07:46;;;;;;;;;55.75;45.00;;;;;16.57;30.97;102113.50;2103752;28;47350;-59
2022/03/25 01:08:47;;;;;;;;;55.25;44.50;;;;;16.56;31.34;102116.22;2103432;28;47470;-59
2022/03/25 01:09:47;;;;;;;;;52.40;42.60;;;;;16.55;30.90;102112.66;2103336;28;47306;-60
2022/03/25 01:10:48;;;;;;;;;55.25;43.75;;;;;16.54;31.08;102116.25;2085223;28;47947;-57
2022/03/25 01:11:49;;;;;;;;;54.75;44.25;;;;;16.54;31.44;102112.69;2085512;28;47596;-60
2022/03/25 01:12:49;;;;;;;;;56.20;45.00;;;;;16.52;31.14;102115.41;2103187;28;47636;-62
2022/03/25 01:13:50;;;;;;;;;54.50;44.75;;;;;16.50;30.90;102114.53;2103320;28;47533;-57
2022/03/25 01:14:51;;;;;;;;;59.00;45.75;;;;;16.48;30.69;102109.22;2103363;28;47867;-59
2022/03/25 01:15:51;;;;;;;;;48.25;39.25;;;;;16.47;30.91;102112.81;2103248;28;47397;-59
2022/03/25 01:16:51;;;;;;;;;52.25;43.00;;;;;16.46;31.00;102115.53;2103394;28;47549;-61
2022/03/25 01:17:52;;;;;;;;;54.50;45.00;;;;;16.45;30.78;102117.34;2103371;28;47715;-61
2022/03/25 01:18:53;;;;;;;;;54.00;44.00;;;;;16.44;31.32;102109.34;2103366;28;48352;-60
2022/03/25 01:19:53;;;;;;;;;50.75;42.00;;;;;16.43;31.18;102111.13;2103755;28;47754;-61
2022/03/25 01:20:54;;;;;;;;;55.75;44.75;;;;;16.42;30.60;102109.38;2094365;28;47853;-61
2022/03/25 01:21:55;;;;;;;;;50.75;42.75;;;;;16.40;31.14;102103.19;2094418;28;47666;-60
2022/03/25 01:22:56;;;;;;;;;55.60;45.40;;;;;16.39;31.05;102101.44;2103424;28;47428;-59
2022/03/25 01:23:57;;;;;;;;;55.50;43.50;;;;;16.38;31.44;102105.00;2103094;28;47942;-62
2022/03/25 01:24:58;;;;;;;;;50.40;41.60;;;;;16.38;30.83;102098.75;2103811;28;45127;-57
2022/03/25 01:25:58;;;;;;;;;52.75;40.50;;;;;16.38;31.06;102106.78;2103595;28;47852;-60
2022/03/25 01:27:00;;;;;;;;;54.25;43.25;;;;;16.37;31.32;102100.56;2103258;28;47679;-61
2022/03/25 01:28:00;;;;;;;;;53.80;43.20;;;;;16.37;31.30;102099.66;2103381;28;48295;-59
2022/03/25 01:29:01;;;;;;;;;58.25;46.00;;;;;16.37;31.17;102097.00;2103250;28;46646;-61
2022/03/25 01:30:02;;;;;;;;;52.25;42.00;;;;;16.35;31.12;102099.72;2102917;27;48003;-60
2022/03/25 01:31:04;;;;;;;;;51.20;42.20;;;;;16.33;31.19;102095.31;2103934;28;47846;-57
2022/03/25 01:32:07;;;;;;;;;54.80;43.60;;;;;16.32;31.43;102101.59;2099679;28;47663;-60
2022/03/25 01:33:07;;;;;;;;;53.00;43.40;;;;;16.32;31.31;102098.91;2104438;28;47557;-60
2022/03/25 01:34:08;;;;;;;;;54.00;44.00;;;;;16.30;30.99;102093.59;2104922;28;48118;-57
2022/03/25 01:35:12;;;;;;;;;53.75;43.75;;;;;16.29;31.49;102099.00;2104674;28;47527;-61
2022/03/25 01:36:12;;;;;;;;;54.60;44.80;;;;;16.28;31.36;102094.56;2104768;28;47651;-58
2022/03/25 01:37:13;;;;;;;;;58.25;46.25;;;;;16.26;31.68;102093.69;2104859;28;47372;-59
2022/03/25 01:38:14;;;;;;;;;54.50;43.00;;;;;16.26;31.11;102091.00;2104935;28;47113;-59
2022/03/25 01:39:14;;;;;;;;;55.75;44.75;;;;;16.24;31.58;102090.16;2104678;28;47784;-60
2022/03/25 01:40:14;;;;;;;;;51.50;43.00;;;;;16.23;31.50;102091.09;2104810;28;47424;-61
2022/03/25 01:41:17;;;;;;;;;59.25;45.00;;;;;16.21;31.35;102084.88;2100986;28;47914;-58
2022/03/25 01:42:29;;;;;;;;;48.80;39.80;;;;;16.20;31.63;102084.00;2104247;28;46484;-61
2022/03/25 01:43:30;;;;;;;;;51.80;41.60;;;;;16.19;31.41;102087.59;2101627;28;46523;-60
2022/03/25 01:44:31;;;;;;;;;54.60;44.80;;;;;16.19;31.18;102085.81;2104888;28;48013;-61
2022/03/25 01:45:34;;;;;;;;;54.00;43.00;;;;;16.19;31.27;102083.13;2096666;28;47396;-58
2022/03/25 01:46:34;;;;;;;;;57.40;45.20;;;;;16.19;31.28;102084.94;2102611;27;48016;-60
2022/03/25 01:47:35;;;;;;;;;54.75;44.00;;;;;16.16;31.31;102080.53;2113167;27;47348;-59
2022/03/25 01:48:36;;;;;;;;;56.00;45.00;;;;;16.15;31.63;102084.13;2107128;27;47596;-60
2022/03/25 01:49:36;;;;;;;;;55.50;45.00;;;;;16.14;31.53;102086.84;2104485;28;46555;-60
2022/03/25 01:50:39;;;;;;;;;59.00;47.00;;;;;16.13;31.71;102082.38;2104763;28;47485;-60
2022/03/25 01:51:39;;;;;;;;;52.20;43.20;;;;;16.10;31.52;102083.31;2104448;28;47989;-60
2022/03/25 01:52:40;;;;;;;;;54.25;44.75;;;;;16.09;31.42;102078.88;2105061;28;47504;-58
2022/03/25 01:53:40;;;;;;;;;56.25;44.25;;;;;16.08;31.92;102086.97;2104584;28;47194;-60
2022/03/25 01:54:40;;;;;;;;;52.75;43.50;;;;;16.07;31.83;102086.09;2104490;28;47548;-59
2022/03/25 01:55:50;;;;;;;;;55.25;45.25;;;;;16.06;31.62;102084.31;2104890;28;48147;-61
2022/03/25 01:57:00;;;;;;;;;54.20;44.20;;;;;16.05;31.91;102081.69;2104529;28;47768;-60
2022/03/25 01:58:01;;;;;;;;;55.60;45.60;;;;;16.04;31.33;102085.28;2104922;28;48387;-60
2022/03/25 01:59:01;;;;;;;;;50.25;42.75;;;;;16.01;31.47;102088.03;2104622;28;47469;-60
2022/03/25 02:00:02;;;;;;;;;51.75;42.00;;;;;15.99;31.86;102081.81;2097393;28;47363;-58
2022/03/25 02:01:04;;;;;;;;;54.50;44.25;;;;;15.99;31.46;102085.38;2089448;28;47707;-59
2022/03/25 02:02:07;;;;;;;;;55.80;43.40;;;;;15.97;31.85;102087.19;2095594;28;47968;-61
2022/03/25 02:03:08;;;;;;;;;50.80;41.80;;;;;15.95;31.40;102086.34;2104454;28;47488;-60
2022/03/25 02:04:08;;;;;;;;;52.75;42.75;;;;;15.93;31.96;102088.19;2104225;28;47430;-57
2022/03/25 02:05:09;;;;;;;;;55.50;44.25;;;;;15.92;31.65;102085.56;2104552;28;48405;-60
2022/03/25 02:06:10;;;;;;;;;53.50;44.75;;;;;15.88;31.74;102090.09;2104717;28;47565;-60
2022/03/25 02:07:10;;;;;;;;;50.75;41.50;;;;;15.85;31.60;102084.78;2104499;28;47702;-58
2022/03/25 02:08:11;;;;;;;;;52.50;43.00;;;;;15.84;32.00;102081.22;2104563;28;47887;-60
2022/03/25 02:09:11;;;;;;;;;49.25;38.75;;;;;15.83;32.17;102086.63;2104586;28;47848;-59
2022/03/25 02:10:12;;;;;;;;;51.25;42.75;;;;;15.83;31.66;102086.63;2104533;28;47739;-60
2022/03/25 02:11:12;;;;;;;;;52.50;43.75;;;;;15.81;32.23;102080.44;2104415;28;47965;-59
2022/03/25 02:12:13;;;;;;;;;47.75;41.00;;;;;15.80;31.71;102084.03;2095499;28;47583;-58
2022/03/25 02:13:14;;;;;;;;;55.75;46.25;;;;;15.78;31.76;102084.06;2095348;28;47766;-58
2022/03/25 02:14:14;;;;;;;;;50.00;40.50;;;;;15.80;31.85;102081.34;2104023;28;47504;-59
2022/03/25 02:15:15;;;;;;;;;57.25;45.50;;;;;15.79;32.04;102080.47;2104046;28;47362;-61
2022/03/25 02:16:15;;;;;;;;;52.25;42.50;;;;;15.79;31.92;102080.47;2104369;28;47317;-61
2022/03/25 02:17:16;;;;;;;;;55.50;44.00;;;;;15.78;31.96;102077.81;2104516;28;47850;-60
2022/03/25 02:18:21;;;;;;;;;55.25;44.50;;;;;15.77;31.98;102086.78;2104495;28;47673;-57
2022/03/25 02:19:24;;;;;;;;;51.80;42.40;;;;;15.76;32.26;102088.56;2104468;28;47696;-61
2022/03/25 02:20:24;;;;;;;;;51.20;40.40;;;;;15.75;32.29;102085.91;2104590;28;47658;-60
2022/03/25 02:21:29;;;;;;;;;54.50;43.75;;;;;15.74;32.12;102086.81;2104727;28;47281;-61
2022/03/25 02:22:29;;;;;;;;;51.20;42.40;;;;;15.71;32.50;102079.72;2104200;28;47520;-60
2022/03/25 02:23:30;;;;;;;;;51.25;43.00;;;;;15.70;32.01;102082.44;2103865;28;47263;-58
2022/03/25 02:24:30;;;;;;;;;54.75;44.75;;;;;15.69;31.91;102080.69;2104437;28;47615;-59
2022/03/25 02:25:31;;;;;;;;;55.50;45.00;;;;;15.67;32.25;102080.72;2104249;28;47448;-60
2022/03/25 02:26:33;;;;;;;;;52.75;43.50;;;;;15.67;32.19;102078.06;2104179;28;48189;-57
2022/03/25 02:27:37;;;;;;;;;54.00;44.20;;;;;15.67;32.25;102085.19;2100959;28;47762;-60
2022/03/25 02:28:37;;;;;;;;;57.00;44.40;;;;;15.67;32.41;102082.53;2099731;28;47774;-60
2022/03/25 02:29:39;;;;;;;;;52.00;43.00;;;;;15.65;32.06;102082.56;2104321;28;47474;-59
2022/03/25 02:30:39;;;;;;;;;52.00;43.20;;;;;15.65;32.19;102082.56;2104796;28;47798;-59
2022/03/25 02:31:39;;;;;;;;;52.75;44.00;;;;;15.63;32.11;102087.06;2104148;28;47986;-59
2022/03/25 02:32:40;;;;;;;;;56.00;46.25;;;;;15.61;32.19;102086.19;2104925;28;47705;-57
2022/03/25 02:33:40;;;;;;;;;54.00;43.50;;;;;15.59;32.34;102078.19;2103641;28;48028;-60
2022/03/25 02:34:41;;;;;;;;;55.25;43.75;;;;;15.58;32.24;102084.44;2104646;28;47710;-59
2022/03/25 02:35:43;;;;;;;;;52.25;42.25;;;;;15.57;32.35;102088.03;2103959;28;47451;-61
2022/03/25 02:36:46;;;;;;;;;57.20;45.00;;;;;15.57;32.19;102085.34;2104193;28;47826;-57
2022/03/25 02:37:46;;;;;;;;;53.20;43.20;;;;;15.55;32.44;102084.50;2104216;28;46987;-59
2022/03/25 02:38:47;;;;;;;;;53.25;43.00;;;;;15.53;32.54;102083.66;2095420;28;46921;-59
2022/03/25 02:39:47;;;;;;;;;53.00;44.25;;;;;15.53;32.40;102085.44;2095178;28;48030;-61
2022/03/25 02:40:48;;;;;;;;;52.25;44.50;;;;;15.52;32.40;102083.69;2104655;27;48046;-60
2022/03/25 02:41:49;;;;;;;;;55.50;45.00;;;;;15.51;32.29;102087.28;2111375;27;47441;-60
2022/03/25 02:42:49;;;;;;;;;53.00;43.75;;;;;15.50;32.19;102085.50;2100010;28;47493;-61
2022/03/25 02:43:50;;;;;;;;;57.00;45.25;;;;;15.49;32.57;102089.09;2071092;28;47281;-61
2022/03/25 02:44:51;;;;;;;;;54.25;44.00;;;;;15.48;32.66;102087.31;2084848;28;47360;-58
2022/03/25 02:45:51;;;;;;;;;55.40;43.60;;;;;15.44;32.22;102086.50;2104146;28;47778;-60
2022/03/25 02:46:52;;;;;;;;;53.75;43.25;;;;;15.42;32.15;102082.09;2104085;28;47052;-56
2022/03/25 02:47:52;;;;;;;;;55.50;44.75;;;;;15.40;32.50;102081.25;2104204;28;47586;-58
2022/03/25 02:48:52;;;;;;;;;57.50;46.00;;;;;15.38;32.40;102088.44;2104393;28;47629;-61
2022/03/25 02:49:53;;;;;;;;;58.00;43.75;;;;;15.37;32.80;102084.84;2104378;28;47920;-58
2022/03/25 02:50:53;;;;;;;;;57.50;46.50;;;;;15.37;32.75;102090.19;2100304;28;47863;-60
2022/03/25 02:51:54;;;;;;;;;57.00;44.50;;;;;15.37;32.92;102089.31;2095792;28;46748;-60
2022/03/25 02:52:56;;;;;;;;;53.50;43.50;;;;;15.35;32.51;102089.34;2102815;28;48367;-57
2022/03/25 02:53:56;;;;;;;;;56.40;45.40;;;;;15.35;32.94;102091.16;2103831;28;47754;-61
2022/03/25 02:54:57;;;;;;;;;57.25;44.00;;;;;15.34;32.44;102097.41;2103995;28;47727;-62
2022/03/25 02:55:57;;;;;;;;;56.00;46.00;;;;;15.32;32.75;102081.41;2104074;28;48092;-59
2022/03/25 02:56:58;;;;;;;;;53.00;43.00;;;;;15.32;33.27;102081.41;2104053;28;47465;-61
2022/03/25 02:57:59;;;;;;;;;54.00;43.40;;;;;15.32;33.04;102084.06;2104311;28;47667;-60
2022/03/25 02:58:59;;;;;;;;;54.25;42.75;;;;;15.32;32.97;102089.41;2086004;28;48124;-60
2022/03/25 02:59:59;;;;;;;;;48.75;41.25;;;;;15.31;32.96;102088.53;2086611;28;47866;-59
2022/03/25 03:01:00;;;;;;;;;56.00;44.00;;;;;15.31;32.97;102085.88;2103019;28;47614;-58
2022/03/25 03:02:01;;;;;;;;;50.75;43.00;;;;;15.31;32.87;102091.22;2104133;28;47563;-59
2022/03/25 03:03:02;;;;;;;;;53.00;43.40;;;;;15.31;33.21;102093.00;2077863;28;46220;-61
2022/03/25 03:04:02;;;;;;;;;53.25;43.25;;;;;15.30;33.08;102089.47;2077236;28;47545;-61
2022/03/25 03:05:06;;;;;;;;;56.50;45.00;;;;;15.30;32.83;102088.56;2077297;28;48065;-61
2022/03/25 03:06:07;;;;;;;;;55.40;44.80;;;;;15.27;33.03;102086.84;2077933;28;48118;-60
2022/03/25 03:07:08;;;;;;;;;54.50;41.50;;;;;15.27;33.32;102091.31;2077955;28;48079;-61
2022/03/25 03:08:09;;;;;;;;;55.25;44.50;;;;;15.27;32.84;102094.00;2078079;28;47520;-60
2022/03/25 03:09:10;;;;;;;;;53.25;43.50;;;;;15.24;33.08;102092.22;2077709;28;47143;-59
2022/03/25 03:10:11;;;;;;;;;55.60;44.60;;;;;15.24;33.28;102091.34;2077642;28;47777;-60
2022/03/25 03:11:13;;;;;;;;;55.60;44.00;;;;;15.22;33.37;102087.84;2077942;28;47606;-61
2022/03/25 03:12:13;;;;;;;;;53.00;43.80;;;;;15.21;33.29;102086.06;2077659;28;47694;-60
2022/03/25 03:13:14;;;;;;;;;55.25;45.00;;;;;15.19;32.96;102086.09;2077421;28;47583;-59
2022/03/25 03:14:14;;;;;;;;;51.25;42.75;;;;;15.19;33.06;102090.56;2077783;28;47453;-60
2022/03/25 03:15:17;;;;;;;;;52.75;43.75;;;;;15.17;33.06;102089.72;2077979;28;47974;-60
2022/03/25 03:16:19;;;;;;;;;56.00;45.60;;;;;15.17;33.16;102093.28;2077902;28;47309;-59
2022/03/25 03:17:19;;;;;;;;;52.20;42.80;;;;;15.16;33.40;102086.16;2077761;28;48154;-61
2022/03/25 03:18:23;;;;;;;;;53.75;44.00;;;;;15.15;33.23;102091.56;2078125;28;47560;-61
2022/03/25 03:19:23;;;;;;;;;54.40;44.20;;;;;15.16;33.38;102096.88;2077915;28;47828;-59
2022/03/25 03:20:24;;;;;;;;;52.00;43.75;;;;;15.15;33.33;102091.56;2077997;28;47998;-59
2022/03/25 03:21:25;;;;;;;;;54.50;45.00;;;;;15.15;33.33;102089.75;2077955;28;47431;-60
2022/03/25 03:22:25;;;;;;;;;52.75;43.00;;;;;15.15;33.44;102096.91;2077625;28;47207;-58
2022/03/25 03:23:25;;;;;;;;;35.50;31.50;;;;;15.14;33.46;102093.34;2077681;28;47920;-60
2022/03/25 03:24:26;;;;;;;;;52.75;43.00;;;;;15.14;33.60;102093.34;2073471;28;47715;-57
2022/03/25 03:25:26;;;;;;;;;52.50;43.00;;;;;15.13;33.60;102088.03;2069670;28;47619;-59
2022/03/25 03:26:27;;;;;;;;;51.00;41.25;;;;;15.14;33.12;102090.66;2077311;28;47957;-59
2022/03/25 03:27:28;;;;;;;;;52.75;44.00;;;;;15.14;33.30;102088.00;2077780;28;48098;-60
2022/03/25 03:28:28;;;;;;;;;58.20;46.40;;;;;15.13;33.63;102094.25;2070137;28;47569;-57
2022/03/25 03:29:29;;;;;;;;;55.25;45.50;;;;;15.14;33.49;102084.44;2069725;28;47816;-58
2022/03/25 03:30:30;;;;;;;;;52.25;42.00;;;;;15.13;33.49;102090.69;2077828;28;47788;-59
2022/03/25 03:31:30;;;;;;;;;52.60;44.00;;;;;15.13;33.10;102088.91;2077744;28;47707;-62
2022/03/25 03:32:31;;;;;;;;;50.50;41.75;;;;;15.12;33.40;102086.22;2077787;28;47845;-60
2022/03/25 03:33:31;;;;;;;;;52.00;43.00;;;;;15.12;33.37;102086.22;2077509;28;47951;-59
2022/03/25 03:34:32;;;;;;;;;56.25;44.50;;;;;15.11;33.47;102089.81;2083894;28;47941;-60
2022/03/25 03:35:36;;;;;;;;;57.75;46.00;;;;;15.10;33.62;102086.25;2103004;28;47614;-58
2022/03/25 03:36:36;;;;;;;;;57.00;45.40;;;;;15.08;33.27;102088.09;2103714;28;47444;-59
2022/03/25 03:37:45;;;;;;;;;56.25;45.00;;;;;15.08;33.70;102080.06;2085730;28;48093;-62
2022/03/25 03:38:46;;;;;;;;;56.20;46.20;;;;;15.07;33.29;102086.34;2088488;28;47992;-59
2022/03/25 03:39:47;;;;;;;;;51.50;42.00;;;;;15.07;33.53;102080.97;2103686;28;48355;-61
2022/03/25 03:40:47;;;;;;;;;54.75;44.75;;;;;15.07;33.73;102083.66;2103612;28;47992;-61
2022/03/25 03:41:48;;;;;;;;;53.50;43.00;;;;;15.07;33.84;102080.09;2103696;28;47184;-59
2022/03/25 03:42:48;;;;;;;;;55.00;44.75;;;;;15.07;33.35;102086.34;2085436;28;47561;-58
2022/03/25 03:43:48;;;;;;;;;50.50;42.25;;;;;15.07;33.73;102083.66;2086228;28;47556;-60
2022/03/25 03:44:49;;;;;;;;;53.50;43.00;;;;;15.07;33.45;102077.44;2103923;28;46390;-60
2022/03/25 03:45:49;;;;;;;;;50.75;42.25;;;;;15.06;33.69;102075.66;2103693;27;47134;-62
2022/03/25 03:46:50;;;;;;;;;19.00;17.00;;;;;15.05;33.75;102081.94;2073657;28;47898;-58
2022/03/25 03:47:50;;;;;;;;;53.50;43.75;;;;;15.02;33.91;102075.72;2074627;28;47897;-59
2022/03/25 03:48:51;;;;;;;;;51.75;42.50;;;;;15.01;34.01;102081.13;2103704;28;47503;-59
2022/03/25 03:49:51;;;;;;;;;50.50;42.25;;;;;15.00;34.00;102077.56;2103649;28;47644;-57
2022/03/25 03:50:52;;;;;;;;;51.25;41.50;;;;;14.99;33.72;102072.22;2104331;28;47676;-57
2022/03/25 03:51:52;;;;;;;;;59.00;45.75;;;;;14.98;33.80;102079.34;2103794;28;47831;-59
2022/03/25 03:52:52;;;;;;;;;53.25;43.00;;;;;14.98;34.01;102078.47;2103428;27;47012;-58
2022/03/25 03:53:53;;;;;;;;;54.25;43.50;;;;;14.97;33.87;102087.41;2093750;28;47244;-59
2022/03/25 03:54:53;;;;;;;;;55.25;44.25;;;;;14.95;34.11;102079.41;2093914;28;47821;-61
2022/03/25 03:55:54;;;;;;;;;55.00;45.00;;;;;14.92;33.88;102082.16;2077113;28;47579;-59
2022/03/25 03:56:54;;;;;;;;;53.75;43.25;;;;;14.91;33.77;102079.50;2077607;28;47303;-58
2022/03/25 03:57:55;;;;;;;;;54.50;43.75;;;;;14.92;34.06;102075.94;2103778;28;47288;-60
2022/03/25 03:58:55;;;;;;;;;52.50;42.75;;;;;14.92;33.87;102078.59;2103028;28;47905;-55
2022/03/25 03:59:55;;;;;;;;;55.00;42.50;;;;;14.92;34.20;102073.25;2101531;28;47889;-58
2022/03/25 04:00:56;;;;;;;;;52.50;42.75;;;;;14.92;33.72;102083.94;2103828;28;47648;-57
2022/03/25 04:01:56;;;;;;;;;52.50;43.00;;;;;14.92;34.24;102081.28;2103788;28;46225;-59
2022/03/25 04:02:57;;;;;;;;;51.50;43.00;;;;;14.92;34.12;102078.59;2103834;28;48226;-61
2022/03/25 04:03:57;;;;;;;;;53.25;44.50;;;;;14.91;34.05;102075.03;2103406;28;47189;-56
2022/03/25 04:04:58;;;;;;;;;56.75;44.25;;;;;14.92;33.94;102079.47;2103667;28;47543;-58
2022/03/25 04:06:00;;;;;;;;;52.00;42.25;;;;;14.91;33.90;102075.03;2103584;28;47178;-58
2022/03/25 04:07:00;;;;;;;;;44.00;34.80;;;;;14.87;34.23;102076.03;2094653;28;47870;-59
2022/03/25 04:08:01;;;;;;;;;53.75;43.25;;;;;14.86;34.23;102076.91;2094918;28;47493;-60
2022/03/25 04:09:01;;;;;;;;;50.50;40.50;;;;;14.85;34.21;102083.16;2104133;28;47222;-60
2022/03/25 04:10:02;;;;;;;;;52.50;44.00;;;;;14.85;34.41;102082.28;2103219;28;47286;-58
2022/03/25 04:11:03;;;;;;;;;56.20;45.40;;;;;14.84;34.19;102081.38;2077302;28;47737;-59
2022/03/25 04:12:05;;;;;;;;;52.40;43.40;;;;;14.83;34.41;102082.31;2077134;28;47908;-59
2022/03/25 04:13:05;;;;;;;;;51.50;42.75;;;;;14.84;34.27;102086.75;2103730;28;47625;-62
2022/03/25 04:14:06;;;;;;;;;56.75;44.50;;;;;14.83;34.47;102079.63;2103002;28;47581;-60
2022/03/25 04:15:11;;;;;;;;;50.25;42.50;;;;;14.83;34.25;102082.31;2103600;28;48051;-59
2022/03/25 04:16:11;;;;;;;;;56.00;44.80;;;;;14.82;34.43;102079.66;2103404;28;47268;-59
2022/03/25 04:17:11;;;;;;;;;55.75;45.50;;;;;14.80;34.35;102079.69;2103654;28;47745;-60
2022/03/25 04:18:12;;;;;;;;;56.25;44.00;;;;;14.81;34.30;102084.13;2103875;28;47368;-59
2022/03/25 04:19:14;;;;;;;;;56.00;44.25;;;;;14.81;34.84;102080.56;2103690;28;47594;-61
2022/03/25 04:20:15;;;;;;;;;56.20;45.00;;;;;14.79;34.59;102083.28;2103692;28;47857;-58
2022/03/25 04:21:15;;;;;;;;;52.25;43.50;;;;;14.79;34.68;102080.59;2094697;28;47874;-60
2022/03/25 04:22:16;;;;;;;;;54.25;43.00;;;;;14.78;34.67;102081.50;2094833;28;47669;-58
2022/03/25 04:23:17;;;;;;;;;56.00;43.75;;;;;14.78;34.33;102083.31;2103812;28;48905;-60
2022/03/25 04:24:17;;;;;;;;;53.00;43.50;;;;;14.76;34.47;102090.47;2103573;28;47673;-60
2022/03/25 04:25:18;;;;;;;;;53.00;43.75;;;;;14.75;34.63;102092.25;2103488;28;47091;-61
2022/03/25 04:26:19;;;;;;;;;56.80;45.40;;;;;14.74;34.45;102087.84;2077066;28;47931;-60
2022/03/25 04:27:19;;;;;;;;;53.00;43.00;;;;;14.74;34.75;102087.84;2077391;28;47581;-62
2022/03/25 04:28:20;;;;;;;;;49.75;41.50;;;;;14.72;34.64;102094.97;2100031;27;48063;-61
2022/03/25 04:29:22;;;;;;;;;54.50;43.00;;;;;14.73;34.79;102100.28;2103593;28;47660;-60
2022/03/25 04:30:25;;;;;;;;;54.80;44.80;;;;;14.71;34.74;102087.84;2103374;28;47713;-59
2022/03/25 04:31:25;;;;;;;;;55.40;44.40;;;;;14.69;34.55;102093.22;2103150;27;47877;-58
2022/03/25 04:32:26;;;;;;;;;56.25;44.75;;;;;14.70;34.66;102096.78;2103574;28;47690;-59
2022/03/25 04:33:26;;;;;;;;;60.75;45.50;;;;;14.69;34.84;102087.00;2103933;28;47813;-60
2022/03/25 04:34:27;;;;;;;;;53.50;43.75;;;;;14.68;34.79;102088.78;2103137;28;47529;-59
2022/03/25 04:35:28;;;;;;;;;51.00;42.00;;;;;14.67;35.19;102094.16;2103817;28;47561;-60
2022/03/25 04:36:29;;;;;;;;;55.20;44.20;;;;;14.66;35.06;102092.41;2103432;28;48316;-60
2022/03/25 04:37:30;;;;;;;;;53.20;43.00;;;;;14.65;35.12;102086.19;2103703;28;47636;-58